Time;durP1;ratioP1;P1;durP2;ratioP2;P2;SDS_P1;SDS_P2;PMS_P1;PMS_P2;Temp;Humidity;BMP_temperature;BMP_pressure;BME280_temperature;BME280_humidity;BME280_pressure;Samples;Min_cycle;Max_cycle;Signal;HPM_P1;HPM_P2
2022/01/02 00:00:51;;;;;;;9.25;3.80;;;28.50;81.50;;;;;;5055120;28;20027;-45
2022/01/02 00:03:23;;;;;;;16.52;3.65;;;28.50;81.50;;;;;;5056477;28;20325;-44
2022/01/02 00:05:52;;;;;;;13.70;4.40;;;28.40;81.30;;;;;;5057785;28;20056;-50
2022/01/02 00:08:19;;;;;;;7.10;3.85;;;28.40;81.50;;;;;;5057739;28;20029;-53
2022/01/02 00:10:49;;;;;;;13.50;4.00;;;28.40;81.40;;;;;;5064061;28;20310;-47
2022/01/02 00:13:28;;;;;;;12.43;3.42;;;28.40;81.20;;;;;;5064098;28;20036;-53
2022/01/02 00:15:57;;;;;;;13.02;3.65;;;28.40;81.30;;;;;;5062854;28;20084;-50
2022/01/02 00:18:28;;;;;;;10.60;3.47;;;28.30;81.00;;;;;;5057368;28;20135;-52
2022/01/02 00:20:56;;;;;;;10.02;3.83;;;28.40;81.00;;;;;;5061714;28;20021;-50
2022/01/02 00:23:30;;;;;;;13.43;3.78;;;28.30;81.00;;;;;;5055467;28;20100;-46
2022/01/02 00:26:04;;;;;;;11.38;3.35;;;28.40;80.80;;;;;;5057659;28;20210;-50
2022/01/02 00:28:32;;;;;;;13.90;4.05;;;28.40;80.70;;;;;;5061079;28;20071;-52
2022/01/02 00:30:59;;;;;;;12.77;3.65;;;28.40;80.40;;;;;;5063662;28;20227;-42
2022/01/02 00:33:26;;;;;;;9.50;3.50;;;28.50;80.40;;;;;;5063850;28;20047;-47
2022/01/02 00:35:53;;;;;;;8.13;3.03;;;28.50;80.30;;;;;;5063670;28;20152;-46
2022/01/02 00:38:23;;;;;;;8.73;3.50;;;28.50;80.20;;;;;;5063841;28;20336;-47
2022/01/02 00:40:53;;;;;;;9.70;3.42;;;28.50;80.00;;;;;;5063772;28;20084;-54
2022/01/02 00:43:32;;;;;;;13.60;3.75;;;28.50;79.90;;;;;;5059672;28;20052;-44
2022/01/02 00:46:04;;;;;;;14.98;4.10;;;28.50;79.80;;;;;;5059898;28;20123;-44
2022/01/02 00:48:33;;;;;;;11.75;3.72;;;28.50;79.80;;;;;;5058944;28;20027;-48
2022/01/02 00:51:05;;;;;;;17.20;4.10;;;28.50;79.60;;;;;;5053863;28;20017;-47
2022/01/02 00:53:37;;;;;;;7.35;3.28;;;28.50;79.50;;;;;;5061430;28;20056;-47
2022/01/02 00:56:04;;;;;;;9.63;3.45;;;28.50;79.40;;;;;;5053899;28;20070;-53
2022/01/02 00:58:51;;;;;;;10.70;3.10;;;28.50;79.20;;;;;;5053242;28;20025;-43
2022/01/02 01:01:24;;;;;;;25.23;3.72;;;28.50;79.20;;;;;;5059181;28;20221;-49
2022/01/02 01:03:54;;;;;;;18.58;4.35;;;28.50;79.10;;;;;;5063590;28;20032;-48
2022/01/02 01:06:27;;;;;;;20.52;5.13;;;28.50;79.00;;;;;;5063632;28;20025;-43
2022/01/02 01:08:57;;;;;;;13.32;4.43;;;28.50;78.90;;;;;;5060714;28;20091;-44
2022/01/02 01:11:28;;;;;;;13.07;4.72;;;28.50;79.30;;;;;;5057649;28;20021;-42
2022/01/02 01:13:57;;;;;;;12.20;4.38;;;28.50;78.70;;;;;;5052199;28;20025;-44
2022/01/02 01:16:23;;;;;;;10.95;4.65;;;28.50;78.70;;;;;;5053925;28;20025;-47
2022/01/02 01:18:50;;;;;;;12.77;4.97;;;28.40;78.60;;;;;;5056577;28;20202;-47
2022/01/02 01:21:17;;;;;;;14.63;6.00;;;28.50;78.50;;;;;;5054373;28;20326;-48
2022/01/02 01:23:44;;;;;;;27.90;8.57;;;28.40;78.40;;;;;;5053763;28;20032;-44
2022/01/02 01:26:12;;;;;;;18.85;7.43;;;28.50;78.50;;;;;;5053632;28;20017;-49
2022/01/02 01:28:39;;;;;;;21.15;7.03;;;28.40;78.40;;;;;;5067175;28;20302;-49
2022/01/02 01:31:05;;;;;;;20.42;6.30;;;28.40;78.40;;;;;;5049580;28;20121;-48
2022/01/02 01:33:33;;;;;;;14.63;5.20;;;28.40;78.40;;;;;;5067351;28;20025;-56
2022/01/02 01:35:59;;;;;;;13.55;5.00;;;28.40;78.40;;;;;;5067069;28;20379;-51
2022/01/02 01:38:26;;;;;;;16.35;5.00;;;28.40;78.40;;;;;;5067175;28;20301;-45
2022/01/02 01:41:05;;;;;;;10.07;4.13;;;28.40;78.40;;;;;;5067064;28;20313;-48
2022/01/02 01:43:51;;;;;;;12.95;3.75;;;28.40;78.40;;;;;;5067141;28;20043;-48
2022/01/02 01:46:17;;;;;;;15.20;4.60;;;28.30;78.40;;;;;;5066672;28;20135;-48
2022/01/02 01:48:55;;;;;;;21.50;6.40;;;28.40;78.50;;;;;;5066913;28;20021;-46
2022/01/02 01:51:23;;;;;;;20.95;6.68;;;28.30;78.50;;;;;;5066787;28;20027;-49
2022/01/02 01:53:50;;;;;;;16.67;7.53;;;28.30;78.60;;;;;;5058442;28;20033;-51
2022/01/02 01:56:17;;;;;;;16.52;8.43;;;28.30;78.70;;;;;;5060576;28;20066;-43
2022/01/02 01:58:44;;;;;;;19.10;11.20;;;28.30;78.70;;;;;;5066686;28;20033;-52
2022/01/02 02:01:11;;;;;;;20.85;11.35;;;28.30;78.80;;;;;;5060041;28;20021;-46
2022/01/02 02:03:38;;;;;;;29.95;13.15;;;28.30;78.80;;;;;;5050993;28;20140;-46
2022/01/02 02:06:04;;;;;;;23.98;13.30;;;28.30;78.70;;;;;;5046507;28;20096;-48
2022/01/02 02:08:31;;;;;;;23.00;12.55;;;28.30;78.80;;;;;;5046589;28;20036;-50
2022/01/02 02:10:58;;;;;;;20.05;12.57;;;28.30;78.70;;;;;;5046546;28;20040;-47
2022/01/02 02:13:25;;;;;;;17.15;10.05;;;28.30;78.70;;;;;;5046362;28;20067;-47
2022/01/02 02:15:53;;;;;;;18.30;8.63;;;28.20;78.60;;;;;;5046347;28;20026;-50
2022/01/02 02:18:19;;;;;;;12.70;7.22;;;28.20;78.60;;;;;;5046358;28;20047;-45
2022/01/02 02:20:46;;;;;;;11.98;6.53;;;28.20;78.50;;;;;;5056963;28;20310;-46
2022/01/02 02:23:14;;;;;;;9.82;5.80;;;28.20;78.30;;;;;;5059729;28;20029;-46
2022/01/02 02:25:42;;;;;;;13.98;6.00;;;28.20;78.10;;;;;;5060030;28;20027;-43
2022/01/02 02:28:14;;;;;;;15.15;8.15;;;28.20;78.00;;;;;;5056926;28;20336;-48
2022/01/02 02:30:44;;;;;;;13.55;6.88;;;28.20;78.00;;;;;;5055607;28;20021;-48
2022/01/02 02:33:13;;;;;;;10.95;5.88;;;28.20;77.90;;;;;;5065843;28;20111;-44
2022/01/02 02:35:40;;;;;;;11.93;5.50;;;28.10;78.20;;;;;;5065734;28;20093;-47
2022/01/02 02:38:09;;;;;;;14.30;6.03;;;28.10;77.60;;;;;;5064387;28;20021;-52
2022/01/02 02:40:37;;;;;;;15.73;5.60;;;28.10;77.50;;;;;;5065827;28;20070;-49
2022/01/02 02:51:22;;;;;;;8.35;4.22;;;28.10;77.20;;;;;;5065673;28;20019;-47
2022/01/02 02:53:49;;;;;;;;;;;28.10;77.00;;;;;;5062688;28;20020;-47
2022/01/02 02:56:21;;;;;;;12.38;4.47;;;28.00;76.90;;;;;;5046666;28;19905;-47
2022/01/02 02:58:49;;;;;;;9.32;3.88;;;28.00;77.00;;;;;;5062759;28;20332;-50
2022/01/02 03:01:19;;;;;;;9.38;4.05;;;28.00;76.90;;;;;;5060101;28;20060;-45
2022/01/02 03:03:47;;;;;;;9.93;3.78;;;28.00;76.90;;;;;;5050949;28;20100;-45
2022/01/02 03:06:15;;;;;;;12.05;3.35;;;28.00;76.90;;;;;;5054560;28;20052;-46
2022/01/02 03:08:43;;;;;;;8.73;3.03;;;28.00;76.90;;;;;;5060129;28;20032;-42
2022/01/02 03:11:16;;;;;;;10.73;3.22;;;28.00;76.80;;;;;;5059187;28;20017;-47
2022/01/02 03:13:44;;;;;;;6.20;2.92;;;28.00;76.70;;;;;;5062422;28;20082;-52
2022/01/02 03:16:11;;;;;;;5.32;2.88;;;27.90;76.70;;;;;;5050347;28;20032;-42
2022/01/02 03:18:38;;;;;;;7.07;2.85;;;27.90;76.60;;;;;;5045102;28;20033;-45
2022/01/02 03:21:05;;;;;;;9.75;3.15;;;27.90;76.50;;;;;;5045174;28;20024;-46
2022/01/02 03:23:32;;;;;;;9.40;3.20;;;27.90;76.50;;;;;;5047466;28;20049;-49
2022/01/02 03:25:59;;;;;;;5.75;2.83;;;27.90;76.50;;;;;;5054399;28;20021;-51
2022/01/02 03:28:26;;;;;;;6.05;2.50;;;27.90;77.00;;;;;;5054479;28;20254;-48
2022/01/02 03:30:52;;;;;;;10.55;2.95;;;27.90;76.40;;;;;;5054057;28;20096;-55
2022/01/02 03:33:19;;;;;;;12.45;3.08;;;27.90;76.40;;;;;;5052864;28;20021;-46
2022/01/02 03:35:46;;;;;;;7.60;2.70;;;27.80;76.30;;;;;;5054262;28;20092;-44
2022/01/02 03:38:12;;;;;;;6.43;2.60;;;27.80;76.30;;;;;;5053603;28;20026;-45
2022/01/02 03:40:39;;;;;;;9.45;2.60;;;27.90;76.30;;;;;;5052246;28;20059;-44
2022/01/02 03:43:07;;;;;;;8.70;2.60;;;27.80;76.10;;;;;;5050331;28;20025;-46
2022/01/02 03:45:33;;;;;;;8.32;2.50;;;27.80;76.10;;;;;;5049280;28;20314;-43
2022/01/02 03:48:00;;;;;;;8.68;2.88;;;27.80;76.00;;;;;;5050178;28;20047;-40
2022/01/02 03:50:27;;;;;;;7.93;2.40;;;27.80;75.90;;;;;;5050366;28;20578;-50
2022/01/02 03:52:54;;;;;;;7.18;2.60;;;27.80;75.70;;;;;;5050124;28;20082;-46
2022/01/02 03:55:21;;;;;;;7.53;2.40;;;27.80;75.70;;;;;;5053300;28;20017;-48
2022/01/02 03:57:48;;;;;;;3.83;2.35;;;27.80;75.70;;;;;;5053660;28;20022;-48
2022/01/02 04:00:15;;;;;;;7.07;2.10;;;27.80;75.70;;;;;;5054367;28;20032;-48
2022/01/02 04:02:43;;;;;;;6.13;2.00;;;27.80;75.60;;;;;;5052116;28;20076;-44
2022/01/02 04:05:12;;;;;;;7.07;2.45;;;27.80;75.60;;;;;;5053346;28;20027;-48
2022/01/02 04:07:39;;;;;;;7.32;2.17;;;27.80;75.50;;;;;;5053742;28;20029;-48
2022/01/02 04:10:08;;;;;;;6.60;2.10;;;27.80;75.50;;;;;;5052828;28;20029;-43
2022/01/02 04:12:35;;;;;;;6.03;2.50;;;27.70;75.50;;;;;;5052744;28;20329;-43
2022/01/02 04:15:03;;;;;;;5.60;2.47;;;27.70;75.40;;;;;;5054515;28;20348;-46
2022/01/02 04:17:32;;;;;;;6.75;1.88;;;27.80;75.50;;;;;;5052994;28;20310;-48
2022/01/02 04:19:58;;;;;;;5.70;2.28;;;27.70;75.30;;;;;;5052449;28;20041;-48
2022/01/02 04:22:25;;;;;;;3.95;2.10;;;27.70;75.30;;;;;;5053792;28;20013;-45
2022/01/02 04:24:52;;;;;;;4.30;2.20;;;27.70;75.30;;;;;;5053713;28;20032;-52
2022/01/02 04:27:20;;;;;;;7.30;2.17;;;27.70;75.20;;;;;;5051913;28;20062;-42
2022/01/02 04:29:47;;;;;;;5.88;2.40;;;27.70;75.20;;;;;;5053894;28;20017;-43
2022/01/02 04:32:14;;;;;;;6.13;2.13;;;27.70;75.20;;;;;;5053292;28;20341;-47
2022/01/02 04:34:42;;;;;;;9.27;2.10;;;27.70;75.20;;;;;;5052229;28;20029;-45
2022/01/02 04:37:10;;;;;;;7.30;2.60;;;27.70;75.10;;;;;;5053079;28;20301;-51
2022/01/02 04:39:37;;;;;;;4.55;2.30;;;27.70;75.00;;;;;;5054057;28;20207;-47
2022/01/02 04:42:05;;;;;;;7.28;1.92;;;27.70;75.00;;;;;;5054648;28;20021;-46
2022/01/02 04:44:31;;;;;;;4.90;2.05;;;27.60;75.00;;;;;;5052913;28;20021;-50
2022/01/02 04:46:58;;;;;;;6.05;2.58;;;27.70;75.10;;;;;;5053657;28;20033;-47
2022/01/02 04:49:24;;;;;;;6.97;2.20;;;27.60;75.00;;;;;;5052334;28;20265;-45
2022/01/02 04:51:53;;;;;;;7.78;2.30;;;27.70;75.20;;;;;;5052665;28;20078;-47
2022/01/02 04:54:21;;;;;;;5.68;2.17;;;27.60;75.10;;;;;;5054001;28;20032;-46
2022/01/02 04:56:48;;;;;;;5.30;2.10;;;27.70;75.20;;;;;;5052372;28;20026;-46
2022/01/02 04:59:15;;;;;;;7.93;2.20;;;27.70;75.20;;;;;;5052363;28;20305;-42
2022/01/02 05:01:41;;;;;;;4.45;1.88;;;27.60;75.00;;;;;;5054950;28;20025;-48
2022/01/02 05:04:08;;;;;;;4.88;1.92;;;27.60;75.00;;;;;;5056207;28;20029;-53
2022/01/02 05:06:35;;;;;;;6.03;1.90;;;27.60;74.90;;;;;;5056281;28;20021;-50
2022/01/02 05:09:01;;;;;;;7.00;2.33;;;27.60;74.90;;;;;;5057961;28;20035;-46
2022/01/02 05:11:28;;;;;;;4.40;2.40;;;27.60;75.00;;;;;;5056307;28;20028;-46
2022/01/02 05:13:55;;;;;;;10.63;2.10;;;27.60;75.00;;;;;;5056076;28;20044;-55
2022/01/02 05:16:21;;;;;;;6.68;2.40;;;27.60;75.00;;;;;;5057541;28;20274;-47
2022/01/02 05:18:48;;;;;;;7.55;2.17;;;27.60;74.80;;;;;;5056339;28;20043;-49
2022/01/02 05:21:14;;;;;;;5.15;2.03;;;27.60;74.70;;;;;;5055938;28;20055;-42
2022/01/02 05:23:42;;;;;;;5.43;2.05;;;27.60;74.60;;;;;;5057514;28;20028;-41
2022/01/02 05:26:09;;;;;;;4.75;2.13;;;27.60;74.70;;;;;;5056023;28;20040;-44
2022/01/02 05:28:35;;;;;;;2.63;2.20;;;27.60;74.50;;;;;;5055839;28;20021;-43
2022/01/02 05:31:02;;;;;;;6.32;2.20;;;27.50;74.00;;;;;;5057205;28;20337;-46
2022/01/02 05:33:29;;;;;;;5.35;1.88;;;27.50;74.20;;;;;;5055945;28;20084;-51
2022/01/02 05:35:55;;;;;;;4.10;2.10;;;27.50;74.30;;;;;;5055610;28;20028;-46
2022/01/02 05:38:23;;;;;;;6.90;2.30;;;27.50;74.20;;;;;;5057307;28;20029;-43
2022/01/02 05:40:52;;;;;;;6.20;2.28;;;27.50;74.00;;;;;;5056020;28;20024;-45
2022/01/02 05:43:18;;;;;;;3.58;2.05;;;27.50;74.20;;;;;;5054993;28;20037;-46
2022/01/02 05:45:45;;;;;;;4.00;2.20;;;27.50;74.10;;;;;;5057156;28;20240;-47
2022/01/02 05:48:11;;;;;;;4.93;1.92;;;27.40;74.00;;;;;;5059587;28;20063;-43
2022/01/02 05:50:38;;;;;;;6.55;2.10;;;27.40;74.00;;;;;;5067140;28;20032;-44
2022/01/02 05:53:04;;;;;;;5.25;2.45;;;27.40;74.00;;;;;;5066871;28;20012;-46
2022/01/02 05:55:31;;;;;;;5.47;2.88;;;27.40;74.00;;;;;;5066941;28;20210;-48
2022/01/02 05:57:57;;;;;;;6.50;2.47;;;27.40;73.90;;;;;;5066591;28;20021;-49
2022/01/02 06:00:24;;;;;;;4.35;2.17;;;27.40;74.20;;;;;;5066803;28;20364;-46
2022/01/02 06:02:50;;;;;;;5.00;2.22;;;27.30;74.20;;;;;;5066695;28;20017;-44
2022/01/02 06:05:17;;;;;;;3.88;2.40;;;27.30;74.30;;;;;;5066728;28;20049;-45
2022/01/02 06:07:43;;;;;;;6.22;2.40;;;27.30;74.50;;;;;;5066506;28;20036;-48
2022/01/02 06:10:10;;;;;;;5.15;2.30;;;27.30;74.60;;;;;;5067017;28;20202;-47
2022/01/02 06:12:37;;;;;;;6.90;2.42;;;27.30;74.70;;;;;;5066483;28;20023;-44
2022/01/02 06:15:03;;;;;;;6.57;2.47;;;27.30;74.70;;;;;;5066829;28;20301;-49
2022/01/02 06:17:30;;;;;;;6.55;2.75;;;27.20;74.80;;;;;;5066516;28;20066;-47
2022/01/02 06:19:56;;;;;;;3.80;2.40;;;27.20;74.90;;;;;;5066826;28;20070;-43
2022/01/02 06:22:23;;;;;;;5.65;2.83;;;27.20;74.90;;;;;;5066225;28;20017;-46
2022/01/02 06:24:49;;;;;;;7.50;2.95;;;27.20;75.20;;;;;;5066801;28;20086;-48
2022/01/02 06:27:16;;;;;;;5.30;2.30;;;27.20;75.00;;;;;;5066136;28;20033;-47
2022/01/02 06:29:43;;;;;;;8.15;2.83;;;27.20;75.00;;;;;;5066437;28;20066;-55
2022/01/02 06:32:09;;;;;;;8.15;2.50;;;27.10;74.80;;;;;;5065995;28;20049;-43
2022/01/02 06:34:36;;;;;;;5.55;2.53;;;27.10;75.00;;;;;;5066093;28;20024;-44
2022/01/02 06:37:05;;;;;;;6.13;2.83;;;27.10;75.20;;;;;;5065910;28;20214;-44
2022/01/02 06:39:31;;;;;;;7.75;2.83;;;27.10;75.40;;;;;;5066415;28;20025;-49
2022/01/02 06:41:58;;;;;;;7.75;2.70;;;27.00;75.30;;;;;;5066092;28;20083;-47
2022/01/02 06:44:24;;;;;;;8.65;2.90;;;27.00;75.60;;;;;;5066132;28;20071;-42
2022/01/02 06:46:51;;;;;;;19.05;3.75;;;27.10;75.70;;;;;;5065869;28;20040;-45
2022/01/02 06:49:17;;;;;;;12.55;3.42;;;27.10;75.70;;;;;;5066153;28;20092;-50
2022/01/02 06:51:44;;;;;;;15.25;3.15;;;27.00;75.70;;;;;;5065631;28;20021;-45
2022/01/02 06:54:11;;;;;;;10.90;2.80;;;27.00;75.80;;;;;;5066152;28;20048;-45
2022/01/02 06:56:37;;;;;;;11.18;3.10;;;27.00;76.00;;;;;;5065665;28;20092;-41
2022/01/02 06:59:04;;;;;;;6.18;2.80;;;27.00;75.90;;;;;;5065762;28;20028;-54
2022/01/02 07:01:30;;;;;;;7.60;2.95;;;27.00;76.00;;;;;;5065583;28;20067;-40
2022/01/02 07:03:57;;;;;;;7.32;3.10;;;27.00;76.00;;;;;;5065809;28;20028;-41
2022/01/02 07:06:23;;;;;;;9.02;2.63;;;27.00;76.10;;;;;;5065335;28;20066;-44
2022/01/02 07:08:50;;;;;;;7.20;2.75;;;26.90;76.10;;;;;;5065588;28;20082;-47
2022/01/02 07:11:18;;;;;;;6.70;3.00;;;27.00;76.30;;;;;;5064814;28;20019;-43
2022/01/02 07:13:44;;;;;;;5.88;2.60;;;27.00;76.50;;;;;;5065333;28;20067;-47
2022/01/02 07:16:11;;;;;;;5.90;2.60;;;27.00;76.60;;;;;;5065224;28;20068;-50
2022/01/02 07:18:37;;;;;;;9.35;3.13;;;27.00;76.60;;;;;;5065590;28;20033;-50
2022/01/02 07:21:04;;;;;;;8.40;3.28;;;26.90;76.50;;;;;;5065226;28;20063;-48
2022/01/02 07:23:30;;;;;;;4.60;2.60;;;26.90;76.60;;;;;;5065006;28;20024;-42
2022/01/02 07:25:57;;;;;;;8.73;3.05;;;26.90;77.10;;;;;;5064716;28;20059;-47
2022/01/02 07:28:23;;;;;;;5.75;2.85;;;26.90;76.60;;;;;;5065352;28;20021;-51
2022/01/02 07:30:50;;;;;;;7.10;2.42;;;26.90;76.70;;;;;;5064806;28;20037;-50
2022/01/02 07:33:16;;;;;;;7.22;2.92;;;26.90;76.70;;;;;;5064943;28;20032;-41
2022/01/02 07:35:43;;;;;;;5.55;2.45;;;26.90;76.60;;;;;;5064973;28;20013;-44
2022/01/02 07:38:09;;;;;;;9.93;2.50;;;26.90;76.50;;;;;;5064794;28;20019;-55
2022/01/02 07:40:36;;;;;;;5.28;2.50;;;26.90;76.40;;;;;;5064886;28;20017;-54
2022/01/02 07:43:03;;;;;;;6.68;2.33;;;26.90;76.20;;;;;;5064747;28;20096;-49
2022/01/02 07:45:29;;;;;;;6.03;2.40;;;26.90;76.10;;;;;;5064603;28;20021;-47
2022/01/02 07:47:56;;;;;;;3.95;2.10;;;26.80;75.90;;;;;;5064693;28;20009;-48
2022/01/02 07:50:22;;;;;;;5.93;2.58;;;26.80;75.70;;;;;;5064704;28;20310;-54
2022/01/02 07:52:52;;;;;;;7.03;2.55;;;26.80;75.60;;;;;;5064582;28;20183;-47
2022/01/02 07:55:19;;;;;;;4.88;2.35;;;26.80;75.50;;;;;;5064858;28;20055;-45
2022/01/02 07:57:47;;;;;;;4.78;2.10;;;26.80;75.10;;;;;;5064559;28;20309;-51
2022/01/02 08:00:14;;;;;;;5.13;2.25;;;26.80;74.90;;;;;;5064897;28;20237;-44
2022/01/02 08:02:41;;;;;;;4.13;1.90;;;26.70;74.80;;;;;;5064397;28;20032;-45
2022/01/02 08:05:10;;;;;;;4.68;2.03;;;26.70;74.50;;;;;;5064917;28;20305;-42
2022/01/02 08:07:40;;;;;;;5.82;2.40;;;26.70;74.30;;;;;;5064092;28;20033;-39
2022/01/02 08:10:08;;;;;;;4.40;2.17;;;26.70;74.10;;;;;;5064837;28;20084;-41
2022/01/02 08:12:34;;;;;;;4.97;2.08;;;26.70;73.90;;;;;;5064522;28;20017;-53
2022/01/02 08:15:01;;;;;;;4.05;1.85;;;26.70;73.70;;;;;;5064593;28;20036;-41
2022/01/02 08:17:27;;;;;;;9.18;2.28;;;26.60;73.60;;;;;;5064178;28;20220;-40
2022/01/02 08:19:54;;;;;;;6.97;1.95;;;26.60;73.70;;;;;;5064015;28;20264;-47
2022/01/02 08:22:21;;;;;;;5.03;2.00;;;26.60;73.70;;;;;;5063976;28;20365;-46
2022/01/02 08:24:47;;;;;;;10.10;2.17;;;26.60;74.00;;;;;;5064462;28;20100;-42
2022/01/02 08:27:14;;;;;;;2.90;1.88;;;26.60;74.10;;;;;;5063957;28;20029;-44
2022/01/02 08:29:40;;;;;;;7.22;1.98;;;26.60;74.30;;;;;;5064325;28;20028;-50
2022/01/02 08:32:07;;;;;;;6.88;2.00;;;26.50;74.30;;;;;;5063916;28;20329;-44
2022/01/02 08:34:33;;;;;;;6.10;2.10;;;26.50;74.50;;;;;;5064321;28;20029;-46
2022/01/02 08:37:00;;;;;;;5.35;2.17;;;26.50;74.60;;;;;;5062902;28;20067;-43
2022/01/02 08:39:26;;;;;;;6.82;2.30;;;26.50;74.70;;;;;;5064223;28;20183;-42
2022/01/02 08:41:53;;;;;;;5.65;1.98;;;26.50;74.60;;;;;;5063924;28;20054;-43
2022/01/02 08:44:20;;;;;;;5.38;2.15;;;26.50;74.60;;;;;;5063946;28;20093;-45
2022/01/02 08:46:46;;;;;;;5.95;1.98;;;26.40;74.60;;;;;;5063736;28;20383;-45
2022/01/02 08:49:13;;;;;;;6.10;2.20;;;26.40;74.50;;;;;;5064026;28;20052;-43
2022/01/02 08:51:40;;;;;;;5.22;2.10;;;26.40;74.40;;;;;;5063678;28;20016;-47
2022/01/02 08:54:06;;;;;;;4.88;1.88;;;26.40;74.50;;;;;;5063995;28;20031;-45
2022/01/02 08:56:33;;;;;;;4.05;1.73;;;26.30;74.60;;;;;;5063776;28;20017;-42
2022/01/02 08:59:00;;;;;;;3.17;1.77;;;26.30;74.00;;;;;;5063802;28;20029;-43
2022/01/02 09:01:26;;;;;;;6.32;1.70;;;26.30;73.60;;;;;;5063687;28;20063;-42
2022/01/02 09:03:53;;;;;;;4.13;1.77;;;26.30;73.30;;;;;;5063521;28;20033;-48
2022/01/02 09:06:19;;;;;;;5.45;1.80;;;26.30;73.10;;;;;;5063466;28;20017;-49
2022/01/02 09:08:46;;;;;;;5.05;1.58;;;26.30;73.00;;;;;;5063739;28;20032;-44
2022/01/02 09:11:12;;;;;;;4.28;1.90;;;26.30;72.70;;;;;;5063502;28;20016;-42
2022/01/02 09:13:39;;;;;;;4.88;1.58;;;26.30;72.30;;;;;;5063650;28;20032;-49
2022/01/02 09:16:05;;;;;;;2.10;1.55;;;26.30;71.60;;;;;;5063342;28;20017;-50
2022/01/02 09:18:33;;;;;;;5.78;1.77;;;26.30;72.00;;;;;;5063722;28;20036;-44
2022/01/02 09:21:00;;;;;;;4.35;1.50;;;26.30;71.70;;;;;;5063491;28;20032;-41
2022/01/02 09:23:27;;;;;;;4.15;1.30;;;26.30;71.10;;;;;;5063404;28;20351;-43
2022/01/02 09:25:53;;;;;;;7.22;1.85;;;26.30;71.00;;;;;;5063345;28;20095;-44
2022/01/02 09:28:20;;;;;;;6.05;1.70;;;26.30;70.60;;;;;;5063476;28;20021;-42
2022/01/02 09:30:46;;;;;;;4.30;1.60;;;26.20;70.60;;;;;;5062014;28;20256;-42
2022/01/02 09:33:13;;;;;;;4.43;1.67;;;26.30;70.80;;;;;;5063357;28;20024;-45
2022/01/02 09:35:41;;;;;;;7.97;1.75;;;26.20;70.80;;;;;;5063381;28;20013;-41
2022/01/02 09:38:09;;;;;;;3.15;1.48;;;26.20;71.00;;;;;;5063214;28;20020;-39
2022/01/02 09:40:36;;;;;;;6.32;1.95;;;26.20;71.10;;;;;;5063302;28;20017;-45
2022/01/02 09:43:04;;;;;;;4.80;1.80;;;26.20;71.20;;;;;;5063252;28;20036;-44
2022/01/02 09:45:35;;;;;;;4.97;1.83;;;26.20;71.20;;;;;;5063111;28;20221;-48
2022/01/02 09:48:05;;;;;;;5.53;1.80;;;26.20;71.60;;;;;;5064939;28;20344;-47
2022/01/02 09:50:32;;;;;;;8.88;2.08;;;26.20;71.80;;;;;;5066911;28;20318;-49
2022/01/02 09:52:59;;;;;;;8.00;2.33;;;26.10;71.90;;;;;;5066854;28;20161;-43
2022/01/02 09:55:26;;;;;;;6.53;2.40;;;26.10;72.00;;;;;;5067169;28;20021;-46
2022/01/02 09:57:54;;;;;;;4.05;2.05;;;26.10;72.30;;;;;;5066819;28;20244;-43
2022/01/02 10:00:20;;;;;;;7.38;2.65;;;26.10;72.70;;;;;;5066750;28;20032;-40
2022/01/02 10:03:08;;;;;;;13.07;2.70;;;26.10;72.90;;;;;;5066746;28;20021;-49
2022/01/02 10:05:59;;;;;;;8.60;2.28;;;26.10;73.20;;;;;;5066607;28;20036;-46
2022/01/02 10:08:35;;;;;;;7.90;2.50;;;26.10;73.30;;;;;;5066482;28;20025;-50
2022/01/02 10:11:15;;;;;;;8.45;2.38;;;26.00;73.30;;;;;;5066430;28;20058;-43
2022/01/02 10:13:50;;;;;;;8.48;2.70;;;26.00;73.40;;;;;;5066525;28;20025;-47
2022/01/02 10:16:37;;;;;;;11.18;2.83;;;26.00;73.50;;;;;;5066652;28;20302;-40
2022/01/02 10:19:29;;;;;;;5.18;2.60;;;26.00;73.40;;;;;;5066511;28;20096;-50
2022/01/02 10:22:03;;;;;;;5.50;2.63;;;26.00;73.50;;;;;;5066387;28;20049;-41
2022/01/02 10:24:33;;;;;;;7.43;2.53;;;26.00;73.50;;;;;;5066596;28;20313;-49
2022/01/02 10:27:19;;;;;;;5.70;2.35;;;26.00;73.50;;;;;;5066236;28;20305;-44
2022/01/02 10:29:50;;;;;;;5.03;2.28;;;26.00;73.30;;;;;;5066540;28;20208;-47
2022/01/02 10:32:34;;;;;;;6.45;2.42;;;26.00;73.40;;;;;;5066059;28;20131;-49
2022/01/02 10:35:23;;;;;;;5.65;2.42;;;26.00;73.40;;;;;;5066535;28;20017;-47
2022/01/02 10:37:53;;;;;;;8.27;2.67;;;26.00;73.10;;;;;;5066141;28;20025;-49
2022/01/02 10:40:36;;;;;;;8.10;2.42;;;25.90;73.20;;;;;;5066005;28;20040;-48
2022/01/02 10:43:06;;;;;;;5.80;2.50;;;25.90;73.20;;;;;;5065902;28;20080;-46
2022/01/02 10:45:38;;;;;;;9.68;2.58;;;26.00;73.30;;;;;;5066169;28;20201;-43
2022/01/02 10:48:08;;;;;;;17.73;2.70;;;25.90;73.20;;;;;;5065868;28;20063;-49
2022/01/02 10:50:36;;;;;;;13.25;2.85;;;25.90;73.10;;;;;;5065664;28;20020;-43
2022/01/02 10:53:16;;;;;;;16.48;2.95;;;25.90;73.10;;;;;;5065794;28;20023;-50
2022/01/02 10:55:47;;;;;;;8.48;2.05;;;25.90;73.00;;;;;;5065690;28;20017;-44
2022/01/02 10:58:15;;;;;;;6.55;2.25;;;25.90;72.80;;;;;;5065802;28;20207;-50
2022/01/02 11:00:42;;;;;;;6.97;2.20;;;25.90;72.80;;;;;;5064914;28;20017;-44
2022/01/02 11:03:09;;;;;;;8.65;2.40;;;25.90;72.90;;;;;;5065586;28;20013;-49
2022/01/02 11:05:39;;;;;;;7.47;2.65;;;25.90;72.70;;;;;;5065458;28;20319;-43
2022/01/02 11:08:07;;;;;;;9.10;2.58;;;25.90;72.50;;;;;;5065515;28;20021;-52
2022/01/02 11:10:37;;;;;;;4.95;2.08;;;25.90;72.20;;;;;;5065286;28;20041;-51
2022/01/02 11:13:05;;;;;;;24.77;2.85;;;25.90;71.90;;;;;;5065411;28;20013;-45
2022/01/02 11:15:33;;;;;;;13.88;2.45;;;25.80;71.70;;;;;;5065428;28;20031;-44
2022/01/02 11:18:00;;;;;;;14.82;2.95;;;25.80;71.40;;;;;;5065293;28;20361;-43
2022/01/02 11:20:30;;;;;;;12.80;2.70;;;25.90;71.40;;;;;;5065286;28;20021;-41
2022/01/02 11:23:12;;;;;;;18.35;2.67;;;25.80;71.40;;;;;;5065205;28;20013;-48
2022/01/02 11:26:06;;;;;;;8.40;2.53;;;25.90;71.40;;;;;;5065382;28;20236;-45
2022/01/02 11:28:44;;;;;;;8.15;2.58;;;25.80;71.40;;;;;;5065170;28;20021;-43
2022/01/02 11:31:11;;;;;;;5.70;2.17;;;25.90;71.30;;;;;;5064896;28;20341;-42
2022/01/02 11:33:42;;;;;;;9.32;2.25;;;25.80;71.30;;;;;;5064958;28;20308;-43
2022/01/02 11:36:32;;;;;;;11.32;2.55;;;25.90;71.30;;;;;;5064960;28;20233;-48
2022/01/02 11:39:09;;;;;;;11.70;2.50;;;25.80;71.10;;;;;;5065003;28;20020;-44
2022/01/02 11:41:35;;;;;;;8.88;2.20;;;25.80;71.00;;;;;;5064900;28;20043;-45
2022/01/02 11:44:02;;;;;;;5.57;2.20;;;25.90;71.10;;;;;;5065105;28;20025;-50
2022/01/02 11:46:39;;;;;;;26.10;2.47;;;25.90;71.10;;;;;;5064621;28;20318;-43
2022/01/02 11:49:13;;;;;;;66.07;4.57;;;25.90;71.50;;;;;;5064837;28;20202;-44
2022/01/02 11:51:51;;;;;;;45.63;3.90;;;25.90;71.60;;;;;;5064509;28;20017;-51
2022/01/02 11:54:31;;;;;;;21.52;2.97;;;25.90;71.80;;;;;;5064961;28;20066;-44
2022/01/02 11:57:04;;;;;;;17.90;3.10;;;26.00;72.00;;;;;;5063887;28;20037;-45
2022/01/02 11:59:40;;;;;;;15.55;2.80;;;26.00;72.10;;;;;;5064846;28;20383;-48
2022/01/02 12:02:29;;;;;;;14.80;2.92;;;26.00;71.90;;;;;;5064347;28;20047;-51
2022/01/02 12:04:59;;;;;;;14.70;2.97;;;26.00;72.40;;;;;;5064069;28;20041;-44
2022/01/02 12:07:40;;;;;;;14.90;3.00;;;26.00;72.50;;;;;;5064042;28;20028;-47
2022/01/02 12:13:00;;;;;;;15.50;3.17;;;26.10;72.60;;;;;;5064180;28;20089;-43
2022/01/02 12:15:33;;;;;;;15.32;3.05;;;26.10;72.60;;;;;;5063942;28;20033;-45
2022/01/02 12:18:41;;;;;;;10.38;3.10;;;26.10;72.60;;;;;;5063937;28;20051;-46
2022/01/02 12:21:08;;;;;;;11.20;3.17;;;26.10;72.70;;;;;;5063953;28;20043;-44
2022/01/02 12:23:35;;;;;;;11.40;3.15;;;26.20;73.00;;;;;;5064347;28;20088;-52
2022/01/02 12:26:05;;;;;;;10.20;3.55;;;26.20;73.10;;;;;;5063844;28;20379;-44
2022/01/02 12:28:48;;;;;;;25.52;4.28;;;26.20;73.20;;;;;;5063853;28;20025;-50
2022/01/02 12:31:16;;;;;;;10.73;3.40;;;26.20;74.20;;;;;;5063757;28;20064;-43
2022/01/02 12:33:44;;;;;;;11.88;2.72;;;26.20;73.70;;;;;;5064008;28;20029;-45
2022/01/02 12:36:18;;;;;;;7.15;3.03;;;26.20;73.90;;;;;;5063900;28;20017;-40
2022/01/02 12:38:47;;;;;;;10.73;3.15;;;26.30;74.00;;;;;;5063926;28;20087;-57
2022/01/02 12:41:16;;;;;;;8.50;3.10;;;26.30;74.20;;;;;;5063777;28;20041;-47
2022/01/02 12:43:54;;;;;;;10.50;3.40;;;26.30;74.20;;;;;;5063801;28;20043;-44
2022/01/02 12:46:53;;;;;;;5.75;2.75;;;26.30;74.30;;;;;;5063100;28;20044;-42
2022/01/02 12:49:26;;;;;;;9.07;3.10;;;26.30;74.40;;;;;;5063516;28;20033;-44
2022/01/02 12:52:02;;;;;;;8.95;2.95;;;26.40;74.50;;;;;;5063679;28;20115;-42
2022/01/02 12:54:33;;;;;;;14.40;3.30;;;26.40;74.60;;;;;;5064031;28;20032;-48
2022/01/02 12:57:02;;;;;;;13.65;3.08;;;26.40;74.70;;;;;;5063589;28;20028;-43
2022/01/02 12:59:35;;;;;;;13.90;3.38;;;26.40;74.70;;;;;;5063644;28;20075;-48
2022/01/02 13:02:07;;;;;;;11.93;3.17;;;26.40;74.70;;;;;;5063636;28;20025;-45
2022/01/02 13:04:43;;;;;;;13.70;3.38;;;26.40;74.70;;;;;;5063651;28;20379;-46